sensor_id;sensor_type;location;lat;lon;timestamp;temperature;humidity
71177;DHT22;58877;51.992;4.504;2023-04-06T00:02:23;7.47;64.10
71177;DHT22;58877;51.992;4.504;2023-04-06T00:04:48;7.52;63.49
71177;DHT22;58877;51.992;4.504;2023-04-06T00:07:14;7.58;62.97
71177;DHT22;58877;51.992;4.504;2023-04-06T00:09:40;7.61;61.90
71177;DHT22;58877;51.992;4.504;2023-04-06T00:12:06;7.70;61.09
71177;DHT22;58877;51.992;4.504;2023-04-06T00:14:32;7.68;60.96
71177;DHT22;58877;51.992;4.504;2023-04-06T00:16:57;7.77;60.85
71177;DHT22;58877;51.992;4.504;2023-04-06T00:19:23;7.78;60.35
71177;DHT22;58877;51.992;4.504;2023-04-06T00:21:48;7.79;60.43
71177;DHT22;58877;51.992;4.504;2023-04-06T00:24:20;7.78;60.04
71177;DHT22;58877;51.992;4.504;2023-04-06T00:26:46;7.78;60.01
71177;DHT22;58877;51.992;4.504;2023-04-06T00:29:11;7.75;59.68
71177;DHT22;58877;51.992;4.504;2023-04-06T00:31:39;7.72;59.34
71177;DHT22;58877;51.992;4.504;2023-04-06T00:34:05;7.68;59.96
71177;DHT22;58877;51.992;4.504;2023-04-06T00:36:37;7.70;59.51
71177;DHT22;58877;51.992;4.504;2023-04-06T00:39:02;7.60;59.39
71177;DHT22;58877;51.992;4.504;2023-04-06T00:41:28;7.61;59.45
71177;DHT22;58877;51.992;4.504;2023-04-06T00:43:54;7.65;59.46
71177;DHT22;58877;51.992;4.504;2023-04-06T00:46:20;7.65;59.05
71177;DHT22;58877;51.992;4.504;2023-04-06T00:48:45;7.58;59.36
71177;DHT22;58877;51.992;4.504;2023-04-06T00:51:11;7.65;59.10
71177;DHT22;58877;51.992;4.504;2023-04-06T00:53:36;7.64;58.85
71177;DHT22;58877;51.992;4.504;2023-04-06T00:56:02;7.62;58.86
71177;DHT22;58877;51.992;4.504;2023-04-06T00:58:27;7.67;58.55
71177;DHT22;58877;51.992;4.504;2023-04-06T01:00:53;7.67;58.27
71177;DHT22;58877;51.992;4.504;2023-04-06T01:03:19;7.68;58.52
71177;DHT22;58877;51.992;4.504;2023-04-06T01:05:45;7.71;58.35
71177;DHT22;58877;51.992;4.504;2023-04-06T01:08:10;7.72;57.98
71177;DHT22;58877;51.992;4.504;2023-04-06T01:10:36;7.71;58.29
71177;DHT22;58877;51.992;4.504;2023-04-06T01:13:01;7.68;57.94
71177;DHT22;58877;51.992;4.504;2023-04-06T01:15:28;7.75;58.18
71177;DHT22;58877;51.992;4.504;2023-04-06T01:17:54;7.79;57.65
71177;DHT22;58877;51.992;4.504;2023-04-06T01:20:20;7.81;57.83
71177;DHT22;58877;51.992;4.504;2023-04-06T01:22:46;7.82;57.49
71177;DHT22;58877;51.992;4.504;2023-04-06T01:25:13;7.84;57.38
71177;DHT22;58877;51.992;4.504;2023-04-06T01:27:39;7.84;57.80
71177;DHT22;58877;51.992;4.504;2023-04-06T01:30:05;7.78;57.79
71177;DHT22;58877;51.992;4.504;2023-04-06T01:32:31;7.82;57.05
71177;DHT22;58877;51.992;4.504;2023-04-06T01:34:56;7.84;57.05
71177;DHT22;58877;51.992;4.504;2023-04-06T01:37:25;7.92;57.26
71177;DHT22;58877;51.992;4.504;2023-04-06T01:39:51;7.99;56.97
71177;DHT22;58877;51.992;4.504;2023-04-06T01:42:16;8.01;56.76
71177;DHT22;58877;51.992;4.504;2023-04-06T01:44:42;7.96;56.99
71177;DHT22;58877;51.992;4.504;2023-04-06T01:47:08;7.92;56.94
71177;DHT22;58877;51.992;4.504;2023-04-06T01:49:33;7.92;56.61
71177;DHT22;58877;51.992;4.504;2023-04-06T01:51:59;7.93;56.76
71177;DHT22;58877;51.992;4.504;2023-04-06T01:54:24;7.96;56.56
71177;DHT22;58877;51.992;4.504;2023-04-06T01:56:50;7.99;56.34
71177;DHT22;58877;51.992;4.504;2023-04-06T01:59:20;7.98;56.22
71177;DHT22;58877;51.992;4.504;2023-04-06T02:01:45;8.01;56.30
71177;DHT22;58877;51.992;4.504;2023-04-06T02:04:11;8.05;56.17
71177;DHT22;58877;51.992;4.504;2023-04-06T02:06:38;8.07;56.06
71177;DHT22;58877;51.992;4.504;2023-04-06T02:09:04;8.10;55.99
71177;DHT22;58877;51.992;4.504;2023-04-06T02:11:29;8.10;55.88
71177;DHT22;58877;51.992;4.504;2023-04-06T02:13:55;8.10;56.04
71177;DHT22;58877;51.992;4.504;2023-04-06T02:16:21;8.12;56.04
71177;DHT22;58877;51.992;4.504;2023-04-06T02:18:49;8.10;56.10
71177;DHT22;58877;51.992;4.504;2023-04-06T02:21:14;8.16;55.80
71177;DHT22;58877;51.992;4.504;2023-04-06T02:23:45;8.12;56.21
71177;DHT22;58877;51.992;4.504;2023-04-06T02:26:11;8.15;55.91
71177;DHT22;58877;51.992;4.504;2023-04-06T02:28:36;8.16;55.75
71177;DHT22;58877;51.992;4.504;2023-04-06T02:31:02;8.19;56.03
71177;DHT22;58877;51.992;4.504;2023-04-06T02:33:27;8.12;56.08
71177;DHT22;58877;51.992;4.504;2023-04-06T02:35:56;8.13;56.13
71177;DHT22;58877;51.992;4.504;2023-04-06T02:38:21;8.13;56.61
71177;DHT22;58877;51.992;4.504;2023-04-06T02:40:47;8.13;56.01
71177;DHT22;58877;51.992;4.504;2023-04-06T02:43:13;8.15;56.19
71177;DHT22;58877;51.992;4.504;2023-04-06T02:45:41;8.15;55.95
71177;DHT22;58877;51.992;4.504;2023-04-06T02:48:06;8.17;56.25
71177;DHT22;58877;51.992;4.504;2023-04-06T02:50:32;8.22;56.16
71177;DHT22;58877;51.992;4.504;2023-04-06T02:53:00;8.22;56.06
71177;DHT22;58877;51.992;4.504;2023-04-06T02:55:26;8.21;56.02
71177;DHT22;58877;51.992;4.504;2023-04-06T02:57:57;8.19;56.09
71177;DHT22;58877;51.992;4.504;2023-04-06T03:00:26;8.17;56.12
71177;DHT22;58877;51.992;4.504;2023-04-06T03:02:54;8.16;56.25
71177;DHT22;58877;51.992;4.504;2023-04-06T03:05:23;8.16;56.46
71177;DHT22;58877;51.992;4.504;2023-04-06T03:07:51;8.17;56.49
71177;DHT22;58877;51.992;4.504;2023-04-06T03:10:17;8.19;56.52
71177;DHT22;58877;51.992;4.504;2023-04-06T03:12:42;8.12;56.59
71177;DHT22;58877;51.992;4.504;2023-04-06T03:15:09;8.15;56.58
71177;DHT22;58877;51.992;4.504;2023-04-06T03:17:34;8.16;56.65
71177;DHT22;58877;51.992;4.504;2023-04-06T03:20:00;8.21;56.58
71177;DHT22;58877;51.992;4.504;2023-04-06T03:22:25;8.16;56.66
71177;DHT22;58877;51.992;4.504;2023-04-06T03:24:54;8.16;56.87
71177;DHT22;58877;51.992;4.504;2023-04-06T03:27:19;8.17;56.67
71177;DHT22;58877;51.992;4.504;2023-04-06T03:29:45;8.17;56.88
71177;DHT22;58877;51.992;4.504;2023-04-06T03:32:13;8.21;56.73
71177;DHT22;58877;51.992;4.504;2023-04-06T03:34:40;8.25;57.21
71177;DHT22;58877;51.992;4.504;2023-04-06T03:37:06;8.23;56.97
71177;DHT22;58877;51.992;4.504;2023-04-06T03:39:31;8.26;56.86
71177;DHT22;58877;51.992;4.504;2023-04-06T03:41:57;8.29;56.88
71177;DHT22;58877;51.992;4.504;2023-04-06T03:44:22;8.25;56.64
71177;DHT22;58877;51.992;4.504;2023-04-06T03:46:48;8.29;56.81
71177;DHT22;58877;51.992;4.504;2023-04-06T03:49:13;8.33;56.88
71177;DHT22;58877;51.992;4.504;2023-04-06T03:51:39;8.35;56.91
71177;DHT22;58877;51.992;4.504;2023-04-06T03:54:05;8.35;57.05
71177;DHT22;58877;51.992;4.504;2023-04-06T03:56:30;8.37;57.22
71177;DHT22;58877;51.992;4.504;2023-04-06T03:58:56;8.40;57.14
71177;DHT22;58877;51.992;4.504;2023-04-06T04:01:21;8.42;57.31
71177;DHT22;58877;51.992;4.504;2023-04-06T04:03:47;8.37;57.44
71177;DHT22;58877;51.992;4.504;2023-04-06T04:06:15;8.37;57.49
71177;DHT22;58877;51.992;4.504;2023-04-06T04:08:44;8.45;57.67
71177;DHT22;58877;51.992;4.504;2023-04-06T04:11:10;8.47;57.99
71177;DHT22;58877;51.992;4.504;2023-04-06T04:13:38;8.50;57.81
71177;DHT22;58877;51.992;4.504;2023-04-06T04:16:04;8.53;57.76
71177;DHT22;58877;51.992;4.504;2023-04-06T04:18:32;8.53;58.15
71177;DHT22;58877;51.992;4.504;2023-04-06T04:20:58;8.49;58.35
71177;DHT22;58877;51.992;4.504;2023-04-06T04:23:26;8.50;58.35
71177;DHT22;58877;51.992;4.504;2023-04-06T04:25:51;8.54;58.45
71177;DHT22;58877;51.992;4.504;2023-04-06T04:28:17;8.56;58.67
71177;DHT22;58877;51.992;4.504;2023-04-06T04:30:46;8.56;58.59
71177;DHT22;58877;51.992;4.504;2023-04-06T04:33:11;8.56;59.14
71177;DHT22;58877;51.992;4.504;2023-04-06T04:35:37;8.54;59.14
71177;DHT22;58877;51.992;4.504;2023-04-06T04:38:02;8.57;59.13
71177;DHT22;58877;51.992;4.504;2023-04-06T04:40:28;8.59;59.35
71177;DHT22;58877;51.992;4.504;2023-04-06T04:42:53;8.63;59.09
71177;DHT22;58877;51.992;4.504;2023-04-06T04:45:19;8.66;59.30
71177;DHT22;58877;51.992;4.504;2023-04-06T04:47:48;8.69;59.58
71177;DHT22;58877;51.992;4.504;2023-04-06T04:50:16;8.71;59.53
71177;DHT22;58877;51.992;4.504;2023-04-06T04:52:42;8.80;59.39
71177;DHT22;58877;51.992;4.504;2023-04-06T04:55:07;8.81;59.48
71177;DHT22;58877;51.992;4.504;2023-04-06T04:57:33;8.85;59.88
71177;DHT22;58877;51.992;4.504;2023-04-06T04:59:58;8.80;59.95
71177;DHT22;58877;51.992;4.504;2023-04-06T05:02:24;8.81;60.03
71177;DHT22;58877;51.992;4.504;2023-04-06T05:04:49;8.84;60.47
71177;DHT22;58877;51.992;4.504;2023-04-06T05:07:15;8.90;60.45
71177;DHT22;58877;51.992;4.504;2023-04-06T05:09:44;8.91;60.62
71177;DHT22;58877;51.992;4.504;2023-04-06T05:12:09;8.90;61.03
71177;DHT22;58877;51.992;4.504;2023-04-06T05:14:35;8.90;60.91
71177;DHT22;58877;51.992;4.504;2023-04-06T05:17:02;8.94;60.74
71177;DHT22;58877;51.992;4.504;2023-04-06T05:19:27;8.91;60.90
71177;DHT22;58877;51.992;4.504;2023-04-06T05:21:53;8.96;60.81
71177;DHT22;58877;51.992;4.504;2023-04-06T05:24:21;8.97;60.97
71177;DHT22;58877;51.992;4.504;2023-04-06T05:26:50;8.96;61.37
71177;DHT22;58877;51.992;4.504;2023-04-06T05:29:19;8.91;61.62
71177;DHT22;58877;51.992;4.504;2023-04-06T05:31:46;8.92;61.82
71177;DHT22;58877;51.992;4.504;2023-04-06T05:34:12;8.96;61.86
71177;DHT22;58877;51.992;4.504;2023-04-06T05:36:38;8.97;62.08
71177;DHT22;58877;51.992;4.504;2023-04-06T05:39:08;9.01;62.14
71177;DHT22;58877;51.992;4.504;2023-04-06T05:41:34;9.01;62.19
71177;DHT22;58877;51.992;4.504;2023-04-06T05:43:59;8.97;62.58
71177;DHT22;58877;51.992;4.504;2023-04-06T05:46:28;8.96;62.51
71177;DHT22;58877;51.992;4.504;2023-04-06T05:48:53;9.00;62.61
71177;DHT22;58877;51.992;4.504;2023-04-06T05:51:30;9.03;62.51
71177;DHT22;58877;51.992;4.504;2023-04-06T05:53:56;9.01;62.68
71177;DHT22;58877;51.992;4.504;2023-04-06T05:56:23;9.11;62.69
71177;DHT22;58877;51.992;4.504;2023-04-06T05:58:49;9.18;62.57
71177;DHT22;58877;51.992;4.504;2023-04-06T06:01:17;9.20;62.60
71177;DHT22;58877;51.992;4.504;2023-04-06T06:03:42;9.25;62.52
71177;DHT22;58877;51.992;4.504;2023-04-06T06:06:08;9.25;62.47
71177;DHT22;58877;51.992;4.504;2023-04-06T06:08:34;9.27;62.42
71177;DHT22;58877;51.992;4.504;2023-04-06T06:11:02;9.25;62.76
71177;DHT22;58877;51.992;4.504;2023-04-06T06:13:27;9.28;62.70
71177;DHT22;58877;51.992;4.504;2023-04-06T06:15:55;9.27;62.81
71177;DHT22;58877;51.992;4.504;2023-04-06T06:18:21;9.34;62.95
71177;DHT22;58877;51.992;4.504;2023-04-06T06:20:47;9.34;63.23
71177;DHT22;58877;51.992;4.504;2023-04-06T06:23:15;9.35;63.15
71177;DHT22;58877;51.992;4.504;2023-04-06T06:25:41;9.39;63.02
71177;DHT22;58877;51.992;4.504;2023-04-06T06:28:07;9.42;62.92
71177;DHT22;58877;51.992;4.504;2023-04-06T06:30:32;9.54;62.96
71177;DHT22;58877;51.992;4.504;2023-04-06T06:32:58;9.61;62.79
71177;DHT22;58877;51.992;4.504;2023-04-06T06:35:23;9.63;62.71
71177;DHT22;58877;51.992;4.504;2023-04-06T06:37:49;9.66;63.18
71177;DHT22;58877;51.992;4.504;2023-04-06T06:40:18;9.68;63.17
71177;DHT22;58877;51.992;4.504;2023-04-06T06:42:45;9.78;63.33
71177;DHT22;58877;51.992;4.504;2023-04-06T06:45:13;9.87;62.67
71177;DHT22;58877;51.992;4.504;2023-04-06T06:47:38;9.92;62.78
71177;DHT22;58877;51.992;4.504;2023-04-06T06:50:07;9.95;62.96
71177;DHT22;58877;51.992;4.504;2023-04-06T06:52:32;10.02;63.16
71177;DHT22;58877;51.992;4.504;2023-04-06T06:55:01;10.00;63.42
71177;DHT22;58877;51.992;4.504;2023-04-06T06:57:33;9.89;63.75
71177;DHT22;58877;51.992;4.504;2023-04-06T06:59:58;9.92;64.01
71177;DHT22;58877;51.992;4.504;2023-04-06T07:02:25;9.92;64.22
71177;DHT22;58877;51.992;4.504;2023-04-06T07:04:51;9.96;64.35
71177;DHT22;58877;51.992;4.504;2023-04-06T07:07:20;10.03;64.48
71177;DHT22;58877;51.992;4.504;2023-04-06T07:09:49;10.13;64.56
71177;DHT22;58877;51.992;4.504;2023-04-06T07:12:14;10.17;65.07
71177;DHT22;58877;51.992;4.504;2023-04-06T07:14:41;10.16;65.44
71177;DHT22;58877;51.992;4.504;2023-04-06T07:17:07;10.20;65.56
71177;DHT22;58877;51.992;4.504;2023-04-06T07:19:34;10.21;65.84
71177;DHT22;58877;51.992;4.504;2023-04-06T07:22:00;10.34;65.93
71177;DHT22;58877;51.992;4.504;2023-04-06T07:24:30;10.34;66.07
71177;DHT22;58877;51.992;4.504;2023-04-06T07:26:55;10.49;65.94
71177;DHT22;58877;51.992;4.504;2023-04-06T07:29:22;10.49;66.10
71177;DHT22;58877;51.992;4.504;2023-04-06T07:31:48;10.53;66.23
71177;DHT22;58877;51.992;4.504;2023-04-06T07:34:15;10.41;66.95
71177;DHT22;58877;51.992;4.504;2023-04-06T07:36:43;10.54;67.17
71177;DHT22;58877;51.992;4.504;2023-04-06T07:39:13;10.51;67.82
71177;DHT22;58877;51.992;4.504;2023-04-06T07:41:39;10.59;68.03
71177;DHT22;58877;51.992;4.504;2023-04-06T07:44:05;10.70;68.30
71177;DHT22;58877;51.992;4.504;2023-04-06T07:46:31;10.74;68.29
71177;DHT22;58877;51.992;4.504;2023-04-06T07:48:58;10.81;68.14
71177;DHT22;58877;51.992;4.504;2023-04-06T07:51:32;10.84;68.14
71177;DHT22;58877;51.992;4.504;2023-04-06T07:53:58;10.80;68.10
71177;DHT22;58877;51.992;4.504;2023-04-06T07:56:24;10.80;68.01
71177;DHT22;58877;51.992;4.504;2023-04-06T07:58:50;10.82;68.04
71177;DHT22;58877;51.992;4.504;2023-04-06T08:01:16;10.85;68.19
71177;DHT22;58877;51.992;4.504;2023-04-06T08:03:42;10.71;69.01
71177;DHT22;58877;51.992;4.504;2023-04-06T08:06:08;10.64;69.67
71177;DHT22;58877;51.992;4.504;2023-04-06T08:08:38;10.70;70.26
71177;DHT22;58877;51.992;4.504;2023-04-06T08:11:04;10.64;70.67
71177;DHT22;58877;51.992;4.504;2023-04-06T08:13:37;10.63;71.51
71177;DHT22;58877;51.992;4.504;2023-04-06T08:16:17;10.56;72.17
71177;DHT22;58877;51.992;4.504;2023-04-06T08:18:44;10.59;72.57
71177;DHT22;58877;51.992;4.504;2023-04-06T08:21:10;10.60;72.61
71177;DHT22;58877;51.992;4.504;2023-04-06T08:23:38;10.63;72.76
71177;DHT22;58877;51.992;4.504;2023-04-06T08:26:07;10.49;72.42
71177;DHT22;58877;51.992;4.504;2023-04-06T08:28:35;10.54;72.81
71177;DHT22;58877;51.992;4.504;2023-04-06T08:31:07;10.61;73.07
71177;DHT22;58877;51.992;4.504;2023-04-06T08:33:33;10.59;73.09
71177;DHT22;58877;51.992;4.504;2023-04-06T08:36:12;10.59;73.31
71177;DHT22;58877;51.992;4.504;2023-04-06T08:38:39;10.61;73.06
71177;DHT22;58877;51.992;4.504;2023-04-06T08:41:12;10.51;73.59
71177;DHT22;58877;51.992;4.504;2023-04-06T08:43:50;10.53;73.55
71177;DHT22;58877;51.992;4.504;2023-04-06T08:46:17;10.46;73.96
71177;DHT22;58877;51.992;4.504;2023-04-06T08:48:48;10.56;74.35
71177;DHT22;58877;51.992;4.504;2023-04-06T08:51:17;10.53;74.66
71177;DHT22;58877;51.992;4.504;2023-04-06T08:53:47;10.64;74.62
71177;DHT22;58877;51.992;4.504;2023-04-06T08:56:15;10.51;74.42
71177;DHT22;58877;51.992;4.504;2023-04-06T08:58:41;10.64;74.88
71177;DHT22;58877;51.992;4.504;2023-04-06T09:01:09;10.68;74.69
71177;DHT22;58877;51.992;4.504;2023-04-06T09:03:40;10.80;74.76
71177;DHT22;58877;51.992;4.504;2023-04-06T09:06:06;10.84;75.16
71177;DHT22;58877;51.992;4.504;2023-04-06T09:08:33;10.77;74.06
71177;DHT22;58877;51.992;4.504;2023-04-06T09:11:03;10.54;73.62
71177;DHT22;58877;51.992;4.504;2023-04-06T09:13:30;10.37;73.85
71177;DHT22;58877;51.992;4.504;2023-04-06T09:16:03;10.37;74.93
71177;DHT22;58877;51.992;4.504;2023-04-06T09:18:30;10.34;74.87
71177;DHT22;58877;51.992;4.504;2023-04-06T09:21:01;10.33;74.48
71177;DHT22;58877;51.992;4.504;2023-04-06T09:23:27;10.37;75.31
71177;DHT22;58877;51.992;4.504;2023-04-06T09:26:04;10.47;75.22
71177;DHT22;58877;51.992;4.504;2023-04-06T09:28:51;10.47;74.87
71177;DHT22;58877;51.992;4.504;2023-04-06T09:31:22;10.53;75.93
71177;DHT22;58877;51.992;4.504;2023-04-06T09:33:49;10.54;75.86
71177;DHT22;58877;51.992;4.504;2023-04-06T09:36:15;10.41;75.83
71177;DHT22;58877;51.992;4.504;2023-04-06T09:39:02;10.43;76.49
71177;DHT22;58877;51.992;4.504;2023-04-06T09:41:30;10.37;76.35
71177;DHT22;58877;51.992;4.504;2023-04-06T09:44:05;10.51;77.08
71177;DHT22;58877;51.992;4.504;2023-04-06T09:46:33;10.53;77.09
71177;DHT22;58877;51.992;4.504;2023-04-06T09:49:02;10.51;76.82
71177;DHT22;58877;51.992;4.504;2023-04-06T09:51:37;10.23;77.31
71177;DHT22;58877;51.992;4.504;2023-04-06T09:54:04;10.20;77.69
71177;DHT22;58877;51.992;4.504;2023-04-06T09:56:37;10.24;78.23
71177;DHT22;58877;51.992;4.504;2023-04-06T09:59:11;10.17;78.27
71177;DHT22;58877;51.992;4.504;2023-04-06T10:01:39;10.17;78.32
71177;DHT22;58877;51.992;4.504;2023-04-06T10:06:48;10.13;79.28
71177;DHT22;58877;51.992;4.504;2023-04-06T10:09:18;10.00;79.37
71177;DHT22;58877;51.992;4.504;2023-04-06T10:11:49;9.83;80.18
71177;DHT22;58877;51.992;4.504;2023-04-06T10:14:16;9.90;80.19
71177;DHT22;58877;51.992;4.504;2023-04-06T10:16:42;9.82;80.27
71177;DHT22;58877;51.992;4.504;2023-04-06T10:19:18;9.63;80.38
71177;DHT22;58877;51.992;4.504;2023-04-06T10:21:51;9.66;81.26
71177;DHT22;58877;51.992;4.504;2023-04-06T10:24:21;9.69;81.22
71177;DHT22;58877;51.992;4.504;2023-04-06T10:27:03;9.69;81.27
71177;DHT22;58877;51.992;4.504;2023-04-06T10:29:44;9.69;81.23
71177;DHT22;58877;51.992;4.504;2023-04-06T10:32:14;9.66;81.39
71177;DHT22;58877;51.992;4.504;2023-04-06T10:34:40;9.68;81.73
71177;DHT22;58877;51.992;4.504;2023-04-06T10:37:21;9.76;82.02
71177;DHT22;58877;51.992;4.504;2023-04-06T10:39:54;9.75;82.00
71177;DHT22;58877;51.992;4.504;2023-04-06T10:42:24;9.79;82.12
71177;DHT22;58877;51.992;4.504;2023-04-06T10:44:51;9.74;82.27
71177;DHT22;58877;51.992;4.504;2023-04-06T10:47:17;9.90;82.53
71177;DHT22;58877;51.992;4.504;2023-04-06T10:49:43;10.02;82.47
71177;DHT22;58877;51.992;4.504;2023-04-06T10:52:09;9.96;81.98
71177;DHT22;58877;51.992;4.504;2023-04-06T10:54:42;9.96;82.27
71177;DHT22;58877;51.992;4.504;2023-04-06T10:57:27;10.02;82.49
71177;DHT22;58877;51.992;4.504;2023-04-06T10:59:53;10.09;82.39
71177;DHT22;58877;51.992;4.504;2023-04-06T11:02:19;10.10;82.38
71177;DHT22;58877;51.992;4.504;2023-04-06T11:05:00;10.06;82.07
71177;DHT22;58877;51.992;4.504;2023-04-06T11:07:27;10.12;82.18
71177;DHT22;58877;51.992;4.504;2023-04-06T11:09:57;10.09;81.96
71177;DHT22;58877;51.992;4.504;2023-04-06T11:12:27;10.09;82.29
71177;DHT22;58877;51.992;4.504;2023-04-06T11:14:58;10.06;82.01
71177;DHT22;58877;51.992;4.504;2023-04-06T11:17:36;10.09;82.46
71177;DHT22;58877;51.992;4.504;2023-04-06T11:20:04;9.97;82.23
71177;DHT22;58877;51.992;4.504;2023-04-06T11:22:53;9.82;82.78
71177;DHT22;58877;51.992;4.504;2023-04-06T11:25:33;9.86;83.02
71177;DHT22;58877;51.992;4.504;2023-04-06T11:27:59;9.90;82.91
71177;DHT22;58877;51.992;4.504;2023-04-06T11:30:26;9.87;82.76
71177;DHT22;58877;51.992;4.504;2023-04-06T11:32:59;9.78;83.16
71177;DHT22;58877;51.992;4.504;2023-04-06T11:35:31;9.82;83.28
71177;DHT22;58877;51.992;4.504;2023-04-06T11:37:58;9.87;83.23
71177;DHT22;58877;51.992;4.504;2023-04-06T11:40:24;9.81;83.42
71177;DHT22;58877;51.992;4.504;2023-04-06T11:42:56;9.87;83.17
71177;DHT22;58877;51.992;4.504;2023-04-06T11:45:23;9.87;83.34
71177;DHT22;58877;51.992;4.504;2023-04-06T11:47:59;9.93;83.06
71177;DHT22;58877;51.992;4.504;2023-04-06T11:50:46;9.86;82.96
71177;DHT22;58877;51.992;4.504;2023-04-06T11:53:54;9.87;82.94
71177;DHT22;58877;51.992;4.504;2023-04-06T11:56:29;9.90;83.32
71177;DHT22;58877;51.992;4.504;2023-04-06T11:58:59;9.85;83.21
71177;DHT22;58877;51.992;4.504;2023-04-06T12:01:26;9.90;83.59
71177;DHT22;58877;51.992;4.504;2023-04-06T12:03:54;10.02;83.32
71177;DHT22;58877;51.992;4.504;2023-04-06T12:06:20;9.93;83.45
71177;DHT22;58877;51.992;4.504;2023-04-06T12:08:46;10.00;83.18
71177;DHT22;58877;51.992;4.504;2023-04-06T12:11:12;9.92;83.07
71177;DHT22;58877;51.992;4.504;2023-04-06T12:13:37;9.87;83.29
71177;DHT22;58877;51.992;4.504;2023-04-06T12:16:04;9.86;83.64
71177;DHT22;58877;51.992;4.504;2023-04-06T12:18:30;9.95;83.59
71177;DHT22;58877;51.992;4.504;2023-04-06T12:20:56;9.95;83.58
71177;DHT22;58877;51.992;4.504;2023-04-06T12:23:22;9.86;83.85
71177;DHT22;58877;51.992;4.504;2023-04-06T12:25:55;9.89;84.16
71177;DHT22;58877;51.992;4.504;2023-04-06T12:28:21;9.89;84.42
71177;DHT22;58877;51.992;4.504;2023-04-06T12:30:48;9.87;84.59
71177;DHT22;58877;51.992;4.504;2023-04-06T12:33:14;9.87;84.33
71177;DHT22;58877;51.992;4.504;2023-04-06T12:35:40;9.86;84.47
71177;DHT22;58877;51.992;4.504;2023-04-06T12:38:05;9.89;84.84
71177;DHT22;58877;51.992;4.504;2023-04-06T12:40:36;9.90;84.63
71177;DHT22;58877;51.992;4.504;2023-04-06T12:43:05;9.82;84.50
71177;DHT22;58877;51.992;4.504;2023-04-06T12:45:31;9.81;85.18
71177;DHT22;58877;51.992;4.504;2023-04-06T12:47:58;9.82;85.11
71177;DHT22;58877;51.992;4.504;2023-04-06T12:50:24;9.81;84.98
71177;DHT22;58877;51.992;4.504;2023-04-06T12:52:50;9.89;85.57
71177;DHT22;58877;51.992;4.504;2023-04-06T12:55:16;9.90;85.49
71177;DHT22;58877;51.992;4.504;2023-04-06T12:57:42;9.78;85.34
71177;DHT22;58877;51.992;4.504;2023-04-06T13:00:08;9.74;85.87
71177;DHT22;58877;51.992;4.504;2023-04-06T13:02:34;9.59;86.16
71177;DHT22;58877;51.992;4.504;2023-04-06T13:05:00;9.66;86.66
71177;DHT22;58877;51.992;4.504;2023-04-06T13:07:25;9.68;86.51
71177;DHT22;58877;51.992;4.504;2023-04-06T13:09:52;9.69;86.43
71177;DHT22;58877;51.992;4.504;2023-04-06T13:12:18;9.76;86.59
71177;DHT22;58877;51.992;4.504;2023-04-06T13:14:43;9.78;86.49
71177;DHT22;58877;51.992;4.504;2023-04-06T13:17:09;9.82;86.57
71177;DHT22;58877;51.992;4.504;2023-04-06T13:19:36;9.78;86.34
71177;DHT22;58877;51.992;4.504;2023-04-06T13:22:01;9.65;86.77
71177;DHT22;58877;51.992;4.504;2023-04-06T13:24:28;9.71;86.85
71177;DHT22;58877;51.992;4.504;2023-04-06T13:26:53;9.78;86.81
71177;DHT22;58877;51.992;4.504;2023-04-06T13:29:19;9.89;86.81
71177;DHT22;58877;51.992;4.504;2023-04-06T13:31:46;9.97;86.63
71177;DHT22;58877;51.992;4.504;2023-04-06T13:34:11;9.90;86.20
71177;DHT22;58877;51.992;4.504;2023-04-06T13:36:37;9.81;86.56
71177;DHT22;58877;51.992;4.504;2023-04-06T13:39:03;9.82;86.76
71177;DHT22;58877;51.992;4.504;2023-04-06T13:41:29;9.89;86.76
71177;DHT22;58877;51.992;4.504;2023-04-06T13:43:55;9.92;86.61
71177;DHT22;58877;51.992;4.504;2023-04-06T13:46:23;9.95;86.71
71177;DHT22;58877;51.992;4.504;2023-04-06T13:48:49;9.96;86.66
71177;DHT22;58877;51.992;4.504;2023-04-06T13:51:15;10.02;86.79
71177;DHT22;58877;51.992;4.504;2023-04-06T13:53:42;10.05;86.81
71177;DHT22;58877;51.992;4.504;2023-04-06T13:56:08;10.13;86.70
71177;DHT22;58877;51.992;4.504;2023-04-06T13:58:39;10.14;86.76
71177;DHT22;58877;51.992;4.504;2023-04-06T14:01:07;10.14;86.73
71177;DHT22;58877;51.992;4.504;2023-04-06T14:03:35;10.06;86.61
71177;DHT22;58877;51.992;4.504;2023-04-06T14:06:01;10.09;87.13
71177;DHT22;58877;51.992;4.504;2023-04-06T14:08:35;10.00;86.98
71177;DHT22;58877;51.992;4.504;2023-04-06T14:11:01;10.06;87.10
71177;DHT22;58877;51.992;4.504;2023-04-06T14:13:26;10.10;87.15
71177;DHT22;58877;51.992;4.504;2023-04-06T14:15:53;10.16;87.13
71177;DHT22;58877;51.992;4.504;2023-04-06T14:18:20;10.09;87.18
71177;DHT22;58877;51.992;4.504;2023-04-06T14:20:54;10.17;87.40
71177;DHT22;58877;51.992;4.504;2023-04-06T14:23:20;10.16;87.50
71177;DHT22;58877;51.992;4.504;2023-04-06T14:25:46;10.27;87.08
71177;DHT22;58877;51.992;4.504;2023-04-06T14:28:12;10.19;86.99
71177;DHT22;58877;51.992;4.504;2023-04-06T14:30:38;10.23;86.84
71177;DHT22;58877;51.992;4.504;2023-04-06T14:33:03;10.29;86.88
71177;DHT22;58877;51.992;4.504;2023-04-06T14:35:29;10.33;86.57
71177;DHT22;58877;51.992;4.504;2023-04-06T14:37:57;10.24;86.88
71177;DHT22;58877;51.992;4.504;2023-04-06T14:40:24;10.26;86.85
71177;DHT22;58877;51.992;4.504;2023-04-06T14:42:50;10.24;86.94
71177;DHT22;58877;51.992;4.504;2023-04-06T14:45:17;10.33;87.00
71177;DHT22;58877;51.992;4.504;2023-04-06T14:47:45;10.33;86.92
71177;DHT22;58877;51.992;4.504;2023-04-06T14:50:11;10.40;86.87
71177;DHT22;58877;51.992;4.504;2023-04-06T14:52:37;10.36;86.57
71177;DHT22;58877;51.992;4.504;2023-04-06T14:55:03;10.37;86.76
71177;DHT22;58877;51.992;4.504;2023-04-06T14:57:32;10.44;86.64
71177;DHT22;58877;51.992;4.504;2023-04-06T14:59:59;10.56;86.57
71177;DHT22;58877;51.992;4.504;2023-04-06T15:02:25;10.51;86.13
71177;DHT22;58877;51.992;4.504;2023-04-06T15:04:51;10.57;86.29
71177;DHT22;58877;51.992;4.504;2023-04-06T15:07:16;10.64;86.42
71177;DHT22;58877;51.992;4.504;2023-04-06T15:09:42;10.54;86.00
71177;DHT22;58877;51.992;4.504;2023-04-06T15:12:08;10.56;86.32
71177;DHT22;58877;51.992;4.504;2023-04-06T15:14:33;10.53;86.40
71177;DHT22;58877;51.992;4.504;2023-04-06T15:16:59;10.50;86.58
71177;DHT22;58877;51.992;4.504;2023-04-06T15:19:25;10.49;86.73
71177;DHT22;58877;51.992;4.504;2023-04-06T15:21:52;10.44;86.36
71177;DHT22;58877;51.992;4.504;2023-04-06T15:24:17;10.41;86.92
71177;DHT22;58877;51.992;4.504;2023-04-06T15:26:43;10.50;86.82
71177;DHT22;58877;51.992;4.504;2023-04-06T15:29:11;10.43;86.80
71177;DHT22;58877;51.992;4.504;2023-04-06T15:31:37;10.43;86.94
71177;DHT22;58877;51.992;4.504;2023-04-06T15:34:07;10.46;87.19
71177;DHT22;58877;51.992;4.504;2023-04-06T15:36:33;10.50;86.90
71177;DHT22;58877;51.992;4.504;2023-04-06T15:39:00;10.44;87.03
71177;DHT22;58877;51.992;4.504;2023-04-06T15:41:26;10.49;87.31
71177;DHT22;58877;51.992;4.504;2023-04-06T15:43:54;10.54;87.07
71177;DHT22;58877;51.992;4.504;2023-04-06T15:46:20;10.60;86.90